createdAt,value
2022-11-08T00:04:24.941Z,100744.05
2022-11-08T00:09:49.983Z,100740.15
2022-11-08T00:14:56.564Z,100736.91
2022-11-08T00:20:02.746Z,100732.85
2022-11-08T00:25:10.121Z,100738.02
2022-11-08T00:30:16.088Z,100734.86
2022-11-08T00:35:21.725Z,100737.20
2022-11-08T00:40:27.602Z,100741.11
2022-11-08T00:45:33.335Z,100737.79
2022-11-08T00:50:41.241Z,100744.05
2022-11-08T00:55:46.919Z,100737.97
2022-11-08T01:00:52.720Z,100737.95
2022-11-08T01:05:58.451Z,100733.09
2022-11-08T01:11:06.910Z,100737.80
2022-11-08T01:16:15.579Z,100731.64
2022-11-08T01:21:23.748Z,100730.61
2022-11-08T01:26:30.568Z,100731.69
2022-11-08T01:31:37.719Z,100731.21
2022-11-08T01:36:43.563Z,100731.05
2022-11-08T01:41:49.425Z,100729.45
2022-11-08T01:46:55.275Z,100731.65
2022-11-08T01:52:30.545Z,100733.02
2022-11-08T01:57:41.124Z,100728.66
2022-11-08T02:02:51.729Z,100730.52
2022-11-08T02:08:02.103Z,100726.52
2022-11-08T02:13:14.649Z,100722.90
2022-11-08T02:18:22.438Z,100718.58
2022-11-08T02:23:32.475Z,100716.15
2022-11-08T02:28:42.175Z,100718.58
2022-11-08T02:33:48.984Z,100716.84
2022-11-08T02:38:57.855Z,100714.92
2022-11-08T02:44:03.787Z,100715.91
2022-11-08T02:49:09.558Z,100714.80
2022-11-08T02:54:15.225Z,100714.60
2022-11-08T02:59:21.078Z,100714.04
2022-11-08T03:04:26.813Z,100714.85
2022-11-08T03:09:32.744Z,100717.57
2022-11-08T03:14:38.941Z,100721.20
2022-11-08T03:19:44.723Z,100722.36
2022-11-08T03:24:50.486Z,100719.71
2022-11-08T03:29:56.311Z,100724.02
2022-11-08T03:35:02.527Z,100721.27
2022-11-08T03:40:11.011Z,100718.33
2022-11-08T03:45:17.184Z,100724.91
2022-11-08T03:50:22.964Z,100734.30
2022-11-08T03:55:29.420Z,100738.53
2022-11-08T04:00:35.401Z,100737.53
2022-11-08T04:05:41.474Z,100731.63
2022-11-08T04:10:47.316Z,100728.30
2022-11-08T04:15:56.298Z,100721.88
2022-11-08T04:21:35.509Z,100723.75
2022-11-08T04:26:43.390Z,100719.39
2022-11-08T04:31:49.312Z,100716.75
2022-11-08T04:36:54.977Z,100724.37
2022-11-08T04:42:02.388Z,100726.44
2022-11-08T04:47:10.329Z,100729.02
2022-11-08T04:52:16.983Z,100724.31
2022-11-08T04:57:22.773Z,100725.39
2022-11-08T05:02:28.768Z,100724.53
2022-11-08T05:07:34.862Z,100721.73
2022-11-08T05:12:40.727Z,100721.58
2022-11-08T05:17:46.706Z,100711.92
2022-11-08T05:23:11.216Z,100715.14
2022-11-08T05:28:17.581Z,100719.08
2022-11-08T05:33:23.760Z,100725.75
2022-11-08T05:38:29.738Z,100737.13
2022-11-08T05:43:36.177Z,100740.54
2022-11-08T05:48:44.434Z,100747.70
2022-11-08T05:53:50.392Z,100751.21
2022-11-08T05:58:56.186Z,100752.28
2022-11-08T06:04:01.920Z,100755.70
2022-11-08T06:09:07.843Z,100759.58
2022-11-08T06:14:15.364Z,100764.13
2022-11-08T06:19:21.292Z,100761.05
2022-11-08T06:24:27.269Z,100757.02
2022-11-08T06:29:33.046Z,100760.33
2022-11-08T06:34:38.905Z,100760.65
2022-11-08T06:39:45.160Z,100760.64
2022-11-08T06:44:50.976Z,100760.90
2022-11-08T06:49:57.518Z,100761.08
2022-11-08T06:55:03.714Z,100765.48
2022-11-08T07:00:11.863Z,100772.66
2022-11-08T07:05:18.100Z,100777.15
2022-11-08T07:10:28.668Z,100783.02
2022-11-08T07:15:36.231Z,100787.52
2022-11-08T07:20:42.802Z,100790.23
2022-11-08T07:25:48.960Z,100791.49
2022-11-08T07:30:59.514Z,100788.67
2022-11-08T07:36:05.939Z,100792.38
2022-11-08T07:41:11.740Z,100801.27
2022-11-08T07:46:17.416Z,100800.23
2022-11-08T07:51:23.210Z,100800.13
2022-11-08T07:56:28.950Z,100792.33
2022-11-08T08:01:35.122Z,100791.62
2022-11-08T08:06:41.125Z,100787.58
2022-11-08T08:11:48.569Z,100786.46
2022-11-08T08:16:55.460Z,100786.40
2022-11-08T08:22:01.417Z,100786.75
2022-11-08T08:27:07.153Z,100788.12
2022-11-08T08:32:12.983Z,100785.14
2022-11-08T08:37:18.658Z,100782.56
2022-11-08T08:42:25.146Z,100785.14
2022-11-08T08:47:30.916Z,100785.19
2022-11-08T08:52:36.981Z,100787.08
2022-11-08T08:57:45.668Z,100786.69
2022-11-08T09:02:51.389Z,100789.60
2022-11-08T09:07:57.894Z,100788.44
2022-11-08T09:13:04.354Z,100786.49
2022-11-08T09:18:10.672Z,100786.19
2022-11-08T09:23:18.159Z,100781.27
2022-11-08T09:28:29.832Z,100787.74
2022-11-08T09:33:39.288Z,100788.67
2022-11-08T09:38:45.112Z,100789.84
2022-11-08T09:44:06.286Z,100793.51
2022-11-08T09:49:16.643Z,100794.39
2022-11-08T09:54:28.051Z,100790.55
2022-11-08T09:59:39.232Z,100786.45
2022-11-08T10:04:50.146Z,100784.84
2022-11-08T10:10:29.080Z,100789.05
2022-11-08T10:15:42.949Z,100784.48
2022-11-08T10:21:03.414Z,100780.47
2022-11-08T10:26:16.503Z,100770.41
2022-11-08T10:31:22.417Z,100773.14
2022-11-08T10:36:35.000Z,100777.23
2022-11-08T10:41:47.334Z,100774.70
2022-11-08T10:47:00.388Z,100768.10
2022-11-08T10:52:23.010Z,100763.09
2022-11-08T10:57:42.140Z,100755.42
2022-11-08T11:02:50.749Z,100752.08
2022-11-08T11:08:03.699Z,100749.44
2022-11-08T11:13:13.834Z,100741.31
2022-11-08T11:18:31.927Z,100739.88
2022-11-08T11:23:45.495Z,100734.54
2022-11-08T11:29:19.326Z,100732.55
2022-11-08T11:34:40.475Z,100734.90
2022-11-08T11:39:55.754Z,100732.48
2022-11-08T11:45:09.870Z,100724.29
2022-11-08T11:50:25.532Z,100724.52
2022-11-08T11:55:47.106Z,100721.48
2022-11-08T12:01:00.422Z,100724.08
2022-11-08T12:06:21.486Z,100722.95
2022-11-08T12:11:40.570Z,100727.66
2022-11-08T12:16:56.767Z,100727.45
2022-11-08T12:22:16.677Z,100726.65
2022-11-08T12:27:35.628Z,100726.56
2022-11-08T12:33:04.071Z,100726.30
2022-11-08T12:38:27.956Z,100718.60
2022-11-08T12:43:49.721Z,100709.82
2022-11-08T12:49:11.483Z,100711.11
2022-11-08T12:54:26.434Z,100706.05
2022-11-08T12:59:38.609Z,100709.64
2022-11-08T13:04:58.357Z,100709.56
2022-11-08T13:10:13.127Z,100709.90
2022-11-08T13:15:25.252Z,100714.35
2022-11-08T13:20:42.982Z,100705.52
2022-11-08T13:25:51.374Z,100702.20
2022-11-08T13:31:09.162Z,100691.99
2022-11-08T13:36:27.669Z,100688.91
2022-11-08T13:41:53.599Z,100689.31
2022-11-08T13:46:59.487Z,100686.83
2022-11-08T13:52:36.232Z,100685.73
2022-11-08T13:58:02.291Z,100684.21
2022-11-08T14:03:55.016Z,100687.95
2022-11-08T14:09:13.511Z,100690.70
2022-11-08T14:14:37.445Z,100694.45
2022-11-08T14:19:46.407Z,100697.63
2022-11-08T14:25:08.228Z,100695.17
2022-11-08T14:30:17.137Z,100695.20
2022-11-08T14:35:25.864Z,100694.85
2022-11-08T14:40:31.567Z,100699.30
2022-11-08T14:45:38.086Z,100697.85
2022-11-08T14:50:44.330Z,100699.90
2022-11-08T14:56:16.962Z,100708.23
2022-11-08T15:01:24.675Z,100709.11
2022-11-08T15:06:36.517Z,100708.78
2022-11-08T15:11:52.626Z,100703.02
2022-11-08T15:17:03.181Z,100705.09
2022-11-08T15:22:24.978Z,100705.05
2022-11-08T15:27:29.217Z,100707.63
2022-11-08T15:32:39.697Z,100708.86
2022-11-08T15:37:46.732Z,100705.08
2022-11-08T15:42:53.700Z,100704.45
2022-11-08T15:48:13.095Z,100702.02
2022-11-08T15:53:20.877Z,100698.20
2022-11-08T15:58:30.497Z,100693.63
2022-11-08T16:03:36.338Z,100695.20
2022-11-08T16:08:42.253Z,100696.16
2022-11-08T16:13:49.120Z,100694.59
2022-11-08T16:18:55.043Z,100698.59
2022-11-08T16:24:01.217Z,100700.70
2022-11-08T16:29:16.144Z,100706.05
2022-11-08T16:34:22.044Z,100709.64
2022-11-08T16:39:28.385Z,100707.79
2022-11-08T16:44:34.411Z,100712.98
2022-11-08T16:49:40.221Z,100714.45
2022-11-08T16:54:45.951Z,100716.41
2022-11-08T16:59:51.603Z,100714.46
2022-11-08T17:04:57.509Z,100716.19
2022-11-08T17:10:03.526Z,100711.29
2022-11-08T17:15:13.755Z,100711.21
2022-11-08T17:20:21.346Z,100708.64
2022-11-08T17:25:32.752Z,100706.77
2022-11-08T17:30:44.125Z,100702.41
2022-11-08T17:35:50.171Z,100703.63
2022-11-08T17:41:04.056Z,100704.60
2022-11-08T17:46:11.290Z,100705.14
2022-11-08T17:51:17.093Z,100711.19
2022-11-08T17:56:23.001Z,100714.33
2022-11-08T18:01:28.983Z,100709.00
2022-11-08T18:06:34.909Z,100708.01
2022-11-08T18:11:47.644Z,100711.84
2022-11-08T18:16:53.608Z,100711.80
2022-11-08T18:22:00.429Z,100716.64
2022-11-08T18:28:49.858Z,100717.04
2022-11-08T18:34:16.854Z,100721.52
2022-11-08T18:39:53.739Z,100722.56
2022-11-08T18:45:13.696Z,100719.14
2022-11-08T18:50:17.068Z,100709.82
2022-11-08T18:55:20.002Z,100707.90
2022-11-08T19:00:23.307Z,100711.51
2022-11-08T19:05:26.280Z,100712.14
2022-11-08T19:10:29.336Z,100709.14
2022-11-08T19:15:33.025Z,100718.00
2022-11-08T19:20:36.340Z,100721.44
2022-11-08T19:25:39.319Z,100724.54
2022-11-08T19:30:49.571Z,100726.08
2022-11-08T19:35:52.860Z,100727.31
2022-11-08T19:40:59.874Z,100733.24
2022-11-08T19:46:06.824Z,100732.95
2022-11-08T19:51:14.159Z,100735.92
2022-11-08T19:56:19.057Z,100733.31
2022-11-08T20:01:24.305Z,100733.98
2022-11-08T20:06:27.425Z,100736.79
2022-11-08T20:11:32.589Z,100739.02
2022-11-08T20:16:40.241Z,100742.09
2022-11-08T20:21:45.504Z,100740.67
2022-11-08T20:26:48.652Z,100741.02
2022-11-08T20:31:52.787Z,100737.89
2022-11-08T20:36:56.550Z,100733.23
2022-11-08T20:42:00.017Z,100728.38
2022-11-08T20:47:06.720Z,100717.98
2022-11-08T20:52:09.869Z,100723.66
2022-11-08T20:57:15.336Z,100725.44
2022-11-08T21:02:18.490Z,100718.02
2022-11-08T21:08:01.851Z,100718.78
2022-11-08T21:19:35.217Z,100714.73
2022-11-08T21:25:40.469Z,100712.82
2022-11-08T21:34:46.516Z,100716.29
2022-11-08T21:39:52.401Z,100717.05
2022-11-08T21:44:58.152Z,100714.31
2022-11-08T21:50:04.397Z,100709.34
2022-11-08T21:55:11.847Z,100710.73
2022-11-08T22:00:18.588Z,100710.18
2022-11-08T22:05:24.447Z,100710.17
2022-11-08T22:10:30.169Z,100714.71
2022-11-08T22:15:36.050Z,100719.06
2022-11-08T22:21:05.481Z,100717.67
2022-11-08T22:26:11.192Z,100708.00
2022-11-08T22:31:16.909Z,100710.27
2022-11-08T22:36:22.664Z,100708.74
2022-11-08T22:41:28.549Z,100709.98
2022-11-08T22:46:34.242Z,100720.01
2022-11-08T22:51:41.154Z,100725.56
2022-11-08T22:56:48.293Z,100726.83
2022-11-08T23:01:53.981Z,100725.14
2022-11-08T23:06:59.781Z,100720.88
2022-11-08T23:12:25.329Z,100718.10
2022-11-08T23:17:31.909Z,100716.05
2022-11-08T23:22:56.383Z,100708.82
2022-11-08T23:28:20.976Z,100704.70
2022-11-08T23:33:26.593Z,100707.63
2022-11-08T23:38:32.947Z,100709.52
2022-11-08T23:43:57.509Z,100709.17
2022-11-08T23:49:04.296Z,100705.23
2022-11-08T23:54:10.458Z,100700.41
2022-11-08T23:59:16.718Z,100696.61
